createdAt,value
2023-07-10T00:01:33.294Z,7.50
2023-07-10T00:04:00.790Z,7.00
2023-07-10T00:06:28.961Z,7.00
2023-07-10T00:08:56.389Z,7.10
2023-07-10T00:11:28.967Z,7.00
2023-07-10T00:13:57.085Z,7.00
2023-07-10T00:16:26.073Z,7.03
2023-07-10T00:18:53.629Z,7.00
2023-07-10T00:21:21.244Z,6.77
2023-07-10T00:23:49.036Z,6.50
2023-07-10T00:26:24.996Z,6.63
2023-07-10T00:28:59.331Z,6.77
2023-07-10T00:31:29.155Z,7.07
2023-07-10T00:33:56.651Z,6.60
2023-07-10T00:36:32.660Z,7.30
2023-07-10T00:39:11.447Z,7.17
2023-07-10T00:41:40.997Z,6.87
2023-07-10T00:44:08.621Z,7.37
2023-07-10T00:46:50.994Z,7.10
2023-07-10T00:49:35.608Z,7.17
2023-07-10T00:52:34.569Z,7.00
2023-07-10T00:55:03.756Z,7.53
2023-07-10T00:57:36.836Z,7.40
2023-07-10T01:00:18.978Z,6.67
2023-07-10T01:02:48.011Z,7.07
2023-07-10T01:05:17.683Z,7.10
2023-07-10T01:07:51.404Z,6.73
2023-07-10T01:10:19.032Z,6.90
2023-07-10T01:12:47.153Z,6.70
2023-07-10T01:15:16.926Z,7.83
2023-07-10T01:17:44.677Z,7.47
2023-07-10T01:20:37.263Z,7.27
2023-07-10T01:23:05.486Z,7.23
2023-07-10T01:25:41.887Z,7.10
2023-07-10T01:28:13.102Z,7.20
2023-07-10T01:30:45.037Z,6.73
2023-07-10T01:33:18.658Z,7.27
2023-07-10T01:35:49.351Z,7.60
2023-07-10T01:38:16.868Z,7.00
2023-07-10T01:40:52.039Z,7.57
2023-07-10T01:43:19.471Z,7.10
2023-07-10T01:45:49.513Z,7.00
2023-07-10T01:48:19.021Z,7.77
2023-07-10T01:50:46.557Z,7.30
2023-07-10T01:53:14.043Z,7.53
2023-07-10T01:55:46.658Z,7.60
2023-07-10T01:58:15.367Z,6.87
2023-07-10T02:00:43.029Z,6.67
2023-07-10T02:03:10.972Z,7.00
2023-07-10T02:05:38.988Z,7.10
2023-07-10T02:08:06.550Z,7.40
2023-07-10T02:13:04.203Z,7.73
2023-07-10T02:15:31.648Z,6.90
2023-07-10T02:17:59.168Z,7.97
2023-07-10T02:20:26.984Z,7.23
2023-07-10T02:22:54.492Z,7.47
2023-07-10T02:25:21.994Z,7.77
2023-07-10T02:27:49.529Z,8.33
2023-07-10T02:30:16.936Z,7.67
2023-07-10T02:32:44.496Z,7.70
2023-07-10T02:35:11.887Z,7.87
2023-07-10T02:37:39.204Z,7.43
2023-07-10T02:40:07.511Z,6.90
2023-07-10T02:42:35.607Z,7.63
2023-07-10T02:45:05.086Z,7.70
2023-07-10T02:47:32.418Z,7.77
2023-07-10T02:49:59.863Z,7.60
2023-07-10T02:52:27.188Z,8.27
2023-07-10T02:54:54.524Z,7.80
2023-07-10T02:57:21.895Z,7.67
2023-07-10T02:59:50.212Z,8.23
2023-07-10T03:02:17.607Z,8.17
2023-07-10T03:04:45.073Z,8.20
2023-07-10T03:07:12.708Z,7.97
2023-07-10T03:09:40.331Z,8.00
2023-07-10T03:12:08.685Z,7.73
2023-07-10T03:14:36.019Z,7.57
2023-07-10T03:17:05.161Z,7.67
2023-07-10T03:19:32.873Z,7.57
2023-07-10T03:22:00.258Z,7.90
2023-07-10T03:24:28.132Z,7.20
2023-07-10T03:26:55.508Z,7.70
2023-07-10T03:29:23.137Z,8.30
2023-07-10T03:31:51.162Z,8.03
2023-07-10T03:34:18.772Z,8.17
2023-07-10T03:36:46.648Z,7.23
2023-07-10T03:39:14.407Z,7.23
2023-07-10T03:41:41.863Z,8.13
2023-07-10T03:44:11.404Z,7.60
2023-07-10T03:46:38.767Z,7.70
2023-07-10T03:49:06.458Z,7.90
2023-07-10T03:51:34.319Z,8.37
2023-07-10T03:54:01.991Z,8.23
2023-07-10T03:56:29.665Z,8.07
2023-07-10T03:58:57.382Z,8.87
2023-07-10T04:01:25.828Z,7.90
2023-07-10T04:03:53.409Z,7.60
2023-07-10T04:06:20.984Z,8.20
2023-07-10T04:08:48.758Z,8.33
2023-07-10T04:11:21.747Z,8.20
2023-07-10T04:13:52.576Z,8.10
2023-07-10T04:16:21.501Z,8.07
2023-07-10T04:18:51.434Z,8.60
2023-07-10T04:21:22.336Z,8.23
2023-07-10T04:23:50.333Z,8.47
2023-07-10T04:26:25.068Z,7.73
2023-07-10T04:28:55.898Z,9.27
2023-07-10T04:31:24.699Z,8.70
2023-07-10T04:33:53.588Z,9.07
2023-07-10T04:36:22.029Z,8.83
2023-07-10T04:38:50.642Z,9.07
2023-07-10T04:41:22.126Z,7.80
2023-07-10T04:43:50.270Z,7.97
2023-07-10T04:46:19.124Z,7.60
2023-07-10T04:48:46.547Z,7.73
2023-07-10T04:51:15.757Z,7.90
2023-07-10T04:53:43.260Z,7.83
2023-07-10T04:56:12.986Z,7.50
2023-07-10T04:58:54.965Z,7.20
2023-07-10T05:01:25.552Z,7.47
2023-07-10T05:03:53.231Z,7.70
2023-07-10T05:06:21.466Z,7.20
2023-07-10T05:08:48.889Z,6.97
2023-07-10T05:11:16.672Z,6.53
2023-07-10T05:13:44.580Z,7.37
2023-07-10T05:16:12.154Z,7.07
2023-07-10T05:18:39.584Z,6.33
2023-07-10T05:21:07.595Z,7.33
2023-07-10T05:23:36.669Z,6.93
2023-07-10T05:26:13.805Z,7.27
2023-07-10T05:28:41.158Z,7.80
2023-07-10T05:31:11.259Z,6.93
2023-07-10T05:33:40.088Z,7.17
2023-07-10T05:36:11.848Z,7.20
2023-07-10T05:38:39.823Z,7.47
2023-07-10T05:41:07.967Z,7.13
2023-07-10T05:43:36.142Z,7.70
2023-07-10T05:46:04.534Z,7.20
2023-07-10T05:48:32.913Z,7.00
2023-07-10T05:51:00.973Z,7.60
2023-07-10T05:53:28.504Z,7.60
2023-07-10T05:55:58.007Z,7.27
2023-07-10T05:58:27.947Z,7.60
2023-07-10T06:00:58.160Z,7.07
2023-07-10T06:03:26.659Z,7.50
2023-07-10T06:05:59.836Z,6.63
2023-07-10T06:08:29.434Z,6.77
2023-07-10T06:10:57.381Z,7.30
2023-07-10T06:13:27.075Z,7.67
2023-07-10T06:15:57.496Z,7.80
2023-07-10T06:18:25.627Z,8.07
2023-07-10T06:20:54.117Z,7.63
2023-07-10T06:23:25.838Z,7.47
2023-07-10T06:25:53.656Z,7.93
2023-07-10T06:28:22.175Z,7.40
2023-07-10T06:31:01.641Z,7.80
2023-07-10T06:33:30.561Z,7.63
2023-07-10T06:35:58.755Z,7.87
2023-07-10T06:38:26.806Z,7.67
2023-07-10T06:40:55.118Z,7.80
2023-07-10T06:43:23.230Z,7.50
2023-07-10T06:45:51.681Z,7.75
2023-07-10T06:48:19.155Z,7.63
2023-07-10T06:50:50.245Z,7.47
2023-07-10T06:53:25.760Z,7.35
2023-07-10T06:56:04.781Z,7.22
2023-07-10T06:58:34.385Z,7.05
2023-07-10T07:01:03.136Z,7.50
2023-07-10T07:03:31.158Z,6.50
2023-07-10T07:05:59.173Z,6.80
2023-07-10T07:08:26.880Z,7.10
2023-07-10T07:10:55.450Z,6.63
2023-07-10T07:13:23.139Z,6.47
2023-07-10T07:15:52.708Z,6.43
2023-07-10T07:18:21.461Z,6.43
2023-07-10T07:20:49.880Z,6.97
2023-07-10T07:23:17.824Z,6.53
2023-07-10T07:25:45.336Z,5.82
2023-07-10T07:28:13.398Z,7.07
2023-07-10T07:30:49.532Z,6.80
2023-07-10T07:33:19.143Z,6.43
2023-07-10T07:35:48.238Z,7.10
2023-07-10T07:38:16.112Z,6.32
2023-07-10T07:40:43.532Z,6.90
2023-07-10T07:43:11.058Z,5.97
2023-07-10T07:45:38.632Z,6.63
2023-07-10T07:48:06.263Z,7.28
2023-07-10T07:50:33.836Z,7.00
2023-07-10T07:53:01.266Z,6.70
2023-07-10T07:55:28.675Z,6.88
2023-07-10T07:57:55.957Z,7.05
2023-07-10T08:00:24.610Z,6.97
2023-07-10T08:02:53.966Z,7.13
2023-07-10T08:05:34.412Z,7.05
2023-07-10T08:08:07.846Z,6.38
2023-07-10T08:10:44.273Z,6.68
2023-07-10T08:13:13.078Z,6.63
2023-07-10T08:15:40.999Z,6.38
2023-07-10T08:18:09.854Z,6.35
2023-07-10T08:20:37.589Z,6.40
2023-07-10T08:23:05.663Z,6.32
2023-07-10T08:25:33.560Z,6.45
2023-07-10T08:28:02.022Z,6.50
2023-07-10T08:30:30.283Z,6.63
2023-07-10T08:32:58.045Z,6.35
2023-07-10T08:35:25.568Z,6.72
2023-07-10T08:37:53.018Z,6.53
2023-07-10T08:40:32.513Z,6.97
2023-07-10T08:43:04.824Z,6.47
2023-07-10T08:45:37.108Z,7.30
2023-07-10T08:48:32.742Z,6.03
2023-07-10T08:51:25.391Z,7.03
2023-07-10T08:54:07.625Z,6.88
2023-07-10T08:56:37.716Z,6.70
2023-07-10T08:59:20.262Z,7.60
2023-07-10T09:01:48.124Z,6.63
2023-07-10T09:04:18.964Z,6.43
2023-07-10T09:06:57.557Z,6.40
2023-07-10T09:09:55.337Z,6.43
2023-07-10T09:12:49.067Z,6.45
2023-07-10T09:15:20.977Z,6.28
2023-07-10T09:17:51.042Z,6.40
2023-07-10T09:20:22.033Z,6.70
2023-07-10T09:23:02.312Z,5.88
2023-07-10T09:25:30.341Z,6.25
2023-07-10T09:27:57.831Z,6.82
2023-07-10T09:30:55.073Z,6.10
2023-07-10T09:33:23.782Z,6.13
2023-07-10T09:35:51.175Z,6.88
2023-07-10T09:38:19.806Z,6.28
2023-07-10T09:40:49.919Z,6.63
2023-07-10T09:43:21.081Z,6.03
2023-07-10T09:45:50.606Z,6.05
2023-07-10T09:48:38.690Z,5.85
2023-07-10T09:51:12.772Z,6.20
2023-07-10T09:53:48.830Z,6.43
2023-07-10T09:56:52.970Z,5.90
2023-07-10T09:59:22.201Z,5.35
2023-07-10T10:01:51.780Z,5.75
2023-07-10T10:04:23.617Z,6.18
2023-07-10T10:07:21.200Z,5.78
2023-07-10T10:10:01.636Z,5.97
2023-07-10T10:12:35.950Z,6.07
2023-07-10T10:15:40.074Z,5.85
2023-07-10T10:18:31.759Z,5.50
2023-07-10T10:21:02.645Z,4.97
2023-07-10T10:23:36.179Z,5.22
2023-07-10T10:26:19.248Z,5.85
2023-07-10T10:29:10.612Z,5.03
2023-07-10T10:31:45.386Z,5.32
2023-07-10T10:34:36.753Z,4.95
2023-07-10T10:37:25.740Z,4.93
2023-07-10T10:40:00.489Z,4.70
2023-07-10T10:42:42.602Z,5.22
2023-07-10T10:45:29.287Z,4.82
2023-07-10T10:48:16.515Z,5.18
2023-07-10T10:51:13.087Z,4.85
2023-07-10T10:54:23.367Z,4.88
2023-07-10T10:57:35.544Z,5.20
2023-07-10T11:00:29.023Z,5.40
2023-07-10T11:03:12.607Z,5.28
2023-07-10T11:05:44.965Z,5.03
2023-07-10T11:08:21.009Z,5.28
2023-07-10T11:10:50.133Z,5.32
2023-07-10T11:13:41.319Z,5.18
2023-07-10T11:16:09.220Z,5.15
2023-07-10T11:18:39.463Z,4.68
2023-07-10T11:21:07.402Z,5.38
2023-07-10T11:23:41.920Z,4.63
2023-07-10T11:26:14.774Z,5.05
2023-07-10T11:29:08.152Z,4.90
2023-07-10T11:31:42.199Z,4.93
2023-07-10T11:34:29.761Z,5.38
2023-07-10T11:36:59.084Z,5.03
2023-07-10T11:39:35.464Z,4.82
2023-07-10T11:42:18.060Z,5.25
2023-07-10T11:44:58.670Z,5.05
2023-07-10T11:47:30.874Z,5.20
2023-07-10T11:50:01.266Z,5.00
2023-07-10T11:52:30.957Z,5.22
2023-07-10T11:54:58.265Z,4.88
2023-07-10T11:57:34.900Z,5.53
2023-07-10T12:00:05.115Z,5.15
2023-07-10T12:02:45.949Z,5.65
2023-07-10T12:05:26.450Z,5.60
2023-07-10T12:08:10.313Z,5.05
2023-07-10T12:10:42.224Z,5.38
2023-07-10T12:13:23.500Z,5.18
2023-07-10T12:15:52.847Z,5.05
2023-07-10T12:18:27.208Z,5.35
2023-07-10T12:20:55.168Z,5.13
2023-07-10T12:23:22.598Z,5.43
2023-07-10T12:25:51.681Z,5.53
2023-07-10T12:30:54.779Z,5.20
2023-07-10T12:33:36.628Z,5.10
2023-07-10T12:36:27.838Z,5.25
2023-07-10T12:39:00.424Z,4.68
2023-07-10T12:41:33.838Z,4.72
2023-07-10T12:44:03.459Z,5.38
2023-07-10T12:46:31.793Z,5.30
2023-07-10T12:49:07.726Z,4.97
2023-07-10T12:51:39.896Z,5.20
2023-07-10T12:54:22.041Z,5.20
2023-07-10T12:56:52.037Z,4.72
2023-07-10T12:59:32.784Z,5.20
2023-07-10T13:02:02.674Z,5.15
2023-07-10T13:04:32.959Z,4.75
2023-07-10T13:07:12.459Z,4.60
2023-07-10T13:09:59.189Z,4.95
2023-07-10T13:12:33.130Z,4.97
2023-07-10T13:15:01.875Z,4.75
2023-07-10T13:17:31.407Z,4.28
2023-07-10T13:20:09.112Z,5.38
2023-07-10T13:22:37.856Z,4.20
2023-07-10T13:25:07.152Z,4.97
2023-07-10T13:27:34.508Z,4.10
2023-07-10T13:30:01.908Z,5.03
2023-07-10T13:32:29.495Z,4.60
2023-07-10T13:34:57.057Z,4.90
2023-07-10T13:37:25.115Z,4.28
2023-07-10T13:39:53.418Z,4.93
2023-07-10T13:42:22.073Z,4.95
2023-07-10T13:44:49.649Z,4.43
2023-07-10T13:47:19.459Z,4.65
2023-07-10T13:49:47.550Z,4.95
2023-07-10T13:52:27.479Z,4.50
2023-07-10T13:54:56.493Z,4.72
2023-07-10T13:57:30.630Z,4.35
2023-07-10T14:00:00.873Z,4.47
2023-07-10T14:02:36.435Z,4.35
2023-07-10T14:05:13.094Z,4.97
2023-07-10T14:07:41.674Z,4.93
2023-07-10T14:10:15.311Z,4.97
2023-07-10T14:12:42.904Z,4.40
2023-07-10T14:15:18.693Z,4.55
2023-07-10T14:17:46.592Z,4.10
2023-07-10T14:20:23.122Z,3.92
2023-07-10T14:22:51.266Z,3.95
2023-07-10T14:25:19.131Z,4.03
2023-07-10T14:27:46.923Z,4.40
2023-07-10T14:30:21.325Z,3.95
2023-07-10T14:32:49.270Z,4.45
2023-07-10T14:35:21.895Z,4.10
2023-07-10T14:37:50.542Z,7.57
2023-07-10T14:40:18.958Z,8.52
2023-07-10T14:42:46.549Z,7.72
2023-07-10T14:45:16.537Z,7.70
2023-07-10T14:47:45.765Z,8.60
2023-07-10T14:50:14.066Z,6.45
2023-07-10T14:52:43.890Z,6.72
2023-07-10T14:55:21.227Z,6.03
2023-07-10T14:57:49.419Z,5.75
2023-07-10T15:00:25.120Z,5.90
2023-07-10T15:02:53.594Z,5.60
2023-07-10T15:05:21.369Z,6.28
2023-07-10T15:07:57.149Z,5.37
2023-07-10T15:10:27.680Z,6.17
2023-07-10T15:12:58.340Z,5.35
2023-07-10T15:15:34.485Z,5.70
2023-07-10T15:18:02.876Z,5.77
2023-07-10T15:20:30.547Z,6.20
2023-07-10T15:22:58.176Z,5.60
2023-07-10T15:25:30.083Z,5.70
2023-07-10T15:27:57.671Z,5.50
2023-07-10T15:30:27.729Z,5.30
2023-07-10T15:32:57.282Z,5.82
2023-07-10T15:35:24.989Z,6.23
2023-07-10T15:37:52.356Z,5.80
2023-07-10T15:40:28.660Z,5.70
2023-07-10T15:42:58.244Z,6.20
2023-07-10T15:45:31.122Z,5.90
2023-07-10T15:48:01.513Z,5.70
2023-07-10T15:50:31.800Z,5.60
2023-07-10T15:52:59.563Z,5.83
2023-07-10T15:55:32.751Z,5.80
2023-07-10T15:58:01.502Z,5.80
2023-07-10T16:00:38.834Z,6.10
2023-07-10T16:03:25.142Z,6.07
2023-07-10T16:06:03.841Z,6.03
2023-07-10T16:08:39.110Z,6.00
2023-07-10T16:11:17.678Z,6.20
2023-07-10T16:13:47.853Z,6.20
2023-07-10T16:16:18.833Z,5.82
2023-07-10T16:18:48.773Z,6.13
2023-07-10T16:21:20.698Z,5.93
2023-07-10T16:23:49.157Z,5.93
2023-07-10T16:26:18.890Z,6.10
2023-07-10T16:28:46.968Z,5.60
2023-07-10T16:31:29.091Z,5.97
2023-07-10T16:33:58.660Z,6.32
2023-07-10T16:36:29.654Z,5.90
2023-07-10T16:38:57.472Z,5.93
2023-07-10T16:41:25.348Z,6.10
2023-07-10T16:43:52.742Z,5.85
2023-07-10T16:46:20.342Z,6.13
2023-07-10T16:48:48.179Z,5.80
2023-07-10T16:51:22.811Z,5.90
2023-07-10T16:53:54.844Z,5.97
2023-07-10T16:56:22.937Z,5.45
2023-07-10T16:58:51.679Z,5.88
2023-07-10T17:01:31.767Z,5.47
2023-07-10T17:04:02.904Z,5.15
2023-07-10T17:06:33.770Z,6.10
2023-07-10T17:09:01.843Z,5.88
2023-07-10T17:11:32.133Z,5.80
2023-07-10T17:14:01.447Z,5.88
2023-07-10T17:16:29.644Z,5.57
2023-07-10T17:18:57.646Z,5.85
2023-07-10T17:21:28.097Z,6.13
2023-07-10T17:23:55.676Z,6.53
2023-07-10T17:26:24.656Z,6.13
2023-07-10T17:28:52.159Z,6.20
2023-07-10T17:31:31.729Z,5.40
2023-07-10T17:34:01.524Z,5.72
2023-07-10T17:36:30.576Z,6.43
2023-07-10T17:41:47.085Z,5.73
2023-07-10T17:44:39.174Z,6.10
2023-07-10T17:47:13.107Z,5.72
2023-07-10T17:49:48.006Z,6.33
2023-07-10T17:52:18.614Z,5.93
2023-07-10T17:54:46.415Z,5.90
2023-07-10T17:57:18.775Z,6.65
2023-07-10T17:59:47.655Z,5.53
2023-07-10T18:02:23.748Z,6.10
2023-07-10T18:04:52.241Z,6.07
2023-07-10T18:07:19.676Z,5.90
2023-07-10T18:09:51.719Z,5.72
2023-07-10T18:12:22.722Z,5.65
2023-07-10T18:14:50.143Z,6.03
2023-07-10T18:17:20.918Z,6.37
2023-07-10T18:19:54.135Z,6.30
2023-07-10T18:22:25.342Z,6.00
2023-07-10T18:24:57.871Z,6.10
2023-07-10T18:27:26.568Z,6.03
2023-07-10T18:29:54.088Z,6.40
2023-07-10T18:32:22.665Z,6.80
2023-07-10T18:34:53.119Z,6.40
2023-07-10T18:37:20.969Z,5.97
2023-07-10T18:39:48.271Z,6.37
2023-07-10T18:42:19.643Z,6.57
2023-07-10T18:44:47.524Z,6.47
2023-07-10T18:47:14.916Z,6.03
2023-07-10T18:49:42.499Z,6.30
2023-07-10T18:52:24.865Z,6.50
2023-07-10T18:54:52.332Z,5.97
2023-07-10T18:57:19.943Z,7.20
2023-07-10T18:59:47.353Z,6.57
2023-07-10T19:02:15.257Z,7.20
2023-07-10T19:04:42.804Z,6.30
2023-07-10T19:07:17.769Z,5.90
2023-07-10T19:09:46.167Z,6.83
2023-07-10T19:12:17.137Z,6.50
2023-07-10T19:14:45.350Z,6.87
2023-07-10T19:17:19.791Z,6.50
2023-07-10T19:19:51.657Z,6.73
2023-07-10T19:22:19.958Z,6.53
2023-07-10T19:24:47.303Z,7.03
2023-07-10T19:27:15.266Z,6.47
2023-07-10T19:29:42.773Z,7.20
2023-07-10T19:32:20.648Z,6.90
2023-07-10T19:34:49.471Z,7.10
2023-07-10T19:37:16.981Z,6.97
2023-07-10T19:39:45.220Z,6.93
2023-07-10T19:42:12.960Z,6.97
2023-07-10T19:44:55.391Z,7.23
2023-07-10T19:47:24.905Z,7.07
2023-07-10T19:49:54.686Z,6.37
2023-07-10T19:52:21.982Z,6.70
2023-07-10T19:54:49.798Z,6.43
2023-07-10T19:57:20.093Z,7.03
2023-07-10T19:59:47.583Z,6.47
2023-07-10T20:02:16.778Z,6.87
2023-07-10T20:04:44.359Z,6.60
2023-07-10T20:07:13.144Z,7.13
2023-07-10T20:09:40.557Z,7.23
2023-07-10T20:12:22.376Z,6.20
2023-07-10T20:14:50.172Z,6.80
2023-07-10T20:17:30.683Z,7.00
2023-07-10T20:19:59.286Z,6.43
2023-07-10T20:22:27.602Z,6.67
2023-07-10T20:24:55.465Z,7.37
2023-07-10T20:27:23.026Z,6.53
2023-07-10T20:29:50.316Z,7.37
2023-07-10T20:32:17.630Z,7.37
2023-07-10T20:34:48.950Z,7.03
2023-07-10T20:37:19.095Z,6.73
2023-07-10T20:39:46.612Z,7.00
2023-07-10T20:42:15.573Z,7.20
2023-07-10T20:44:42.945Z,7.30
2023-07-10T20:47:15.097Z,7.33
2023-07-10T20:49:48.649Z,7.37
2023-07-10T20:52:18.036Z,7.00
2023-07-10T20:54:48.106Z,7.33
2023-07-10T20:57:16.102Z,7.67
2023-07-10T20:59:43.746Z,6.97
2023-07-10T21:02:20.301Z,7.17
2023-07-10T21:04:47.906Z,6.53
2023-07-10T21:07:18.155Z,6.13
2023-07-10T21:09:48.216Z,6.90
2023-07-10T21:12:18.333Z,6.37
2023-07-10T21:14:47.100Z,7.50
2023-07-10T21:17:28.421Z,7.03
2023-07-10T21:19:55.962Z,7.20
2023-07-10T21:22:25.090Z,7.20
2023-07-10T21:24:52.404Z,6.83
2023-07-10T21:27:24.039Z,7.30
2023-07-10T21:29:52.319Z,6.53
2023-07-10T21:32:25.806Z,7.37
2023-07-10T21:34:54.511Z,6.93
2023-07-10T21:37:21.877Z,7.03
2023-07-10T21:39:49.171Z,7.07
2023-07-10T21:42:25.748Z,7.10
2023-07-10T21:44:57.528Z,7.40
2023-07-10T21:47:24.949Z,7.70
2023-07-10T21:49:52.273Z,6.90
2023-07-10T21:52:19.605Z,8.10
2023-07-10T21:54:46.955Z,7.77
2023-07-10T21:57:23.145Z,7.00
2023-07-10T21:59:50.850Z,6.90
2023-07-10T22:02:18.508Z,7.47
2023-07-10T22:04:46.045Z,7.50
2023-07-10T22:07:13.400Z,7.70
2023-07-10T22:09:40.765Z,7.93
2023-07-10T22:12:15.187Z,7.63
2023-07-10T22:14:42.599Z,7.90
2023-07-10T22:17:22.969Z,7.37
2023-07-10T22:19:57.116Z,8.30
2023-07-10T22:22:24.617Z,7.60
2023-07-10T22:24:52.084Z,7.27
2023-07-10T22:27:19.601Z,7.67
2023-07-10T22:29:47.151Z,7.83
2023-07-10T22:32:14.517Z,7.80
2023-07-10T22:34:42.020Z,7.37
2023-07-10T22:37:11.380Z,7.70
2023-07-10T22:39:39.083Z,8.23
2023-07-10T22:42:06.721Z,7.87
2023-07-10T22:44:34.126Z,7.97
2023-07-10T22:47:01.471Z,7.90
2023-07-10T22:49:28.948Z,8.17
2023-07-10T22:51:56.430Z,8.10
2023-07-10T22:54:23.719Z,8.10
2023-07-10T22:56:50.989Z,7.80
2023-07-10T22:59:20.174Z,8.23
2023-07-10T23:01:50.889Z,8.17
2023-07-10T23:04:18.743Z,7.50
2023-07-10T23:06:46.733Z,7.43
2023-07-10T23:09:14.098Z,7.87
2023-07-10T23:11:41.436Z,8.17
2023-07-10T23:14:08.884Z,7.60
2023-07-10T23:16:36.719Z,7.27
2023-07-10T23:19:04.156Z,7.60
2023-07-10T23:21:31.596Z,7.93
2023-07-10T23:24:00.879Z,6.93
2023-07-10T23:26:28.505Z,7.70
2023-07-10T23:28:55.830Z,7.60
2023-07-10T23:31:26.232Z,8.53
2023-07-10T23:33:54.448Z,9.87
2023-07-10T23:36:24.602Z,9.10
2023-07-10T23:38:52.806Z,9.10
2023-07-10T23:41:20.850Z,8.00
2023-07-10T23:43:48.650Z,8.17
2023-07-10T23:46:16.354Z,7.17
2023-07-10T23:48:44.693Z,8.03
2023-07-10T23:51:12.293Z,8.07
2023-07-10T23:53:39.689Z,7.30
2023-07-10T23:56:08.701Z,6.60
2023-07-10T23:58:36.356Z,7.10
